sensor_id;sensor_type;location;lat;lon;timestamp;pressure;altitude;pressure_sealevel;temperature;humidity
75604;BME280;64187;51.010;13.792;2023-07-20T00:01:56;99830.66;;;17.89;82.92
75604;BME280;64187;51.010;13.792;2023-07-20T00:06:55;99827.16;;;18.02;84.61
75604;BME280;64187;51.010;13.792;2023-07-20T00:11:54;99815.38;;;18.01;82.53
75604;BME280;64187;51.010;13.792;2023-07-20T00:16:55;99821.00;;;17.77;84.33
75604;BME280;64187;51.010;13.792;2023-07-20T00:21:55;99822.44;;;17.75;84.59
75604;BME280;64187;51.010;13.792;2023-07-20T00:26:53;99815.13;;;17.70;85.08
75604;BME280;64187;51.010;13.792;2023-07-20T00:31:53;99812.56;;;17.74;85.02
75604;BME280;64187;51.010;13.792;2023-07-20T00:36:51;99822.16;;;17.90;85.90
75604;BME280;64187;51.010;13.792;2023-07-20T00:41:50;99822.25;;;17.85;86.45
75604;BME280;64187;51.010;13.792;2023-07-20T00:46:49;99826.94;;;17.98;86.72
75604;BME280;64187;51.010;13.792;2023-07-20T00:51:49;99840.31;;;18.00;85.57
75604;BME280;64187;51.010;13.792;2023-07-20T00:56:48;99829.69;;;18.12;85.31
75604;BME280;64187;51.010;13.792;2023-07-20T01:01:49;99828.25;;;18.01;86.39
75604;BME280;64187;51.010;13.792;2023-07-20T01:06:53;99828.47;;;18.04;86.30
75604;BME280;64187;51.010;13.792;2023-07-20T01:12:08;99835.88;;;18.04;84.68
75604;BME280;64187;51.010;13.792;2023-07-20T01:17:08;99828.28;;;17.68;86.47
75604;BME280;64187;51.010;13.792;2023-07-20T01:22:31;99831.00;;;17.54;87.75
75604;BME280;64187;51.010;13.792;2023-07-20T01:32:58;99838.31;;;17.92;81.48
75604;BME280;64187;51.010;13.792;2023-07-20T01:37:58;99843.56;;;18.02;83.20
75604;BME280;64187;51.010;13.792;2023-07-20T01:42:59;99844.63;;;17.73;81.71
75604;BME280;64187;51.010;13.792;2023-07-20T01:47:58;99831.41;;;17.48;83.63
75604;BME280;64187;51.010;13.792;2023-07-20T01:52:57;99833.84;;;17.49;83.31
75604;BME280;64187;51.010;13.792;2023-07-20T01:57:56;99831.16;;;17.30;86.54
75604;BME280;64187;51.010;13.792;2023-07-20T02:02:55;99837.03;;;17.05;88.54
75604;BME280;64187;51.010;13.792;2023-07-20T02:07:54;99832.19;;;17.34;84.96
75604;BME280;64187;51.010;13.792;2023-07-20T02:12:53;99829.38;;;17.20;88.51
75604;BME280;64187;51.010;13.792;2023-07-20T02:17:53;99828.94;;;17.13;87.87
75604;BME280;64187;51.010;13.792;2023-07-20T02:22:52;99839.94;;;16.94;89.86
75604;BME280;64187;51.010;13.792;2023-07-20T02:27:52;99845.84;;;16.83;90.33
75604;BME280;64187;51.010;13.792;2023-07-20T02:32:51;99839.16;;;16.27;93.71
75604;BME280;64187;51.010;13.792;2023-07-20T02:37:50;99833.53;;;16.42;93.29
75604;BME280;64187;51.010;13.792;2023-07-20T02:42:49;99839.09;;;16.32;93.15
75604;BME280;64187;51.010;13.792;2023-07-20T02:47:48;99843.63;;;16.42;92.53
75604;BME280;64187;51.010;13.792;2023-07-20T02:52:47;99846.44;;;16.55;91.05
75604;BME280;64187;51.010;13.792;2023-07-20T02:57:45;99855.38;;;16.61;90.40
75604;BME280;64187;51.010;13.792;2023-07-20T03:02:45;99856.50;;;16.60;90.71
75604;BME280;64187;51.010;13.792;2023-07-20T03:07:48;99865.31;;;16.33;93.70
75604;BME280;64187;51.010;13.792;2023-07-20T03:12:47;99870.06;;;16.46;92.69
75604;BME280;64187;51.010;13.792;2023-07-20T03:17:46;99870.25;;;16.74;88.91
75604;BME280;64187;51.010;13.792;2023-07-20T03:22:45;99864.09;;;16.87;88.54
75604;BME280;64187;51.010;13.792;2023-07-20T03:27:45;99874.00;;;17.02;88.38
75604;BME280;64187;51.010;13.792;2023-07-20T03:32:44;99878.28;;;16.65;90.33
75604;BME280;64187;51.010;13.792;2023-07-20T03:37:43;99869.03;;;16.85;87.58
75604;BME280;64187;51.010;13.792;2023-07-20T03:42:42;99873.22;;;17.15;87.81
75604;BME280;64187;51.010;13.792;2023-07-20T03:47:41;99872.34;;;17.20;86.91
75604;BME280;64187;51.010;13.792;2023-07-20T03:52:40;99871.53;;;17.00;87.25
75604;BME280;64187;51.010;13.792;2023-07-20T03:57:39;99872.72;;;17.13;85.36
75604;BME280;64187;51.010;13.792;2023-07-20T04:02:38;99883.16;;;16.92;88.42
75604;BME280;64187;51.010;13.792;2023-07-20T04:07:37;99880.88;;;16.75;89.37
75604;BME280;64187;51.010;13.792;2023-07-20T04:12:36;99885.50;;;17.18;86.63
75604;BME280;64187;51.010;13.792;2023-07-20T04:17:35;99879.25;;;17.50;82.40
75604;BME280;64187;51.010;13.792;2023-07-20T04:22:34;99884.63;;;17.88;80.60
75604;BME280;64187;51.010;13.792;2023-07-20T04:27:34;99888.81;;;17.99;79.36
75604;BME280;64187;51.010;13.792;2023-07-20T04:32:34;99885.75;;;17.87;80.06
75604;BME280;64187;51.010;13.792;2023-07-20T04:37:35;99888.59;;;17.96;79.50
75604;BME280;64187;51.010;13.792;2023-07-20T04:42:34;99878.69;;;18.14;79.33
75604;BME280;64187;51.010;13.792;2023-07-20T04:47:33;99890.25;;;18.11;79.15
75604;BME280;64187;51.010;13.792;2023-07-20T04:52:33;99891.66;;;18.08;79.95
75604;BME280;64187;51.010;13.792;2023-07-20T04:57:45;99897.66;;;18.10;79.22
75604;BME280;64187;51.010;13.792;2023-07-20T05:02:44;99905.16;;;18.04;79.33
75604;BME280;64187;51.010;13.792;2023-07-20T05:07:43;99909.13;;;18.26;77.84
75604;BME280;64187;51.010;13.792;2023-07-20T05:12:42;99901.94;;;18.16;78.72
75604;BME280;64187;51.010;13.792;2023-07-20T05:17:41;99900.59;;;18.14;78.40
75604;BME280;64187;51.010;13.792;2023-07-20T05:22:40;99901.50;;;18.23;79.63
75604;BME280;64187;51.010;13.792;2023-07-20T05:27:40;99892.88;;;18.85;75.43
75604;BME280;64187;51.010;13.792;2023-07-20T05:32:39;99890.38;;;19.11;75.34
75604;BME280;64187;51.010;13.792;2023-07-20T05:37:38;99895.81;;;18.88;74.24
75604;BME280;64187;51.010;13.792;2023-07-20T05:42:37;99887.38;;;19.21;73.10
75604;BME280;64187;51.010;13.792;2023-07-20T05:47:36;99892.56;;;18.72;74.70
75604;BME280;64187;51.010;13.792;2023-07-20T05:52:36;99894.69;;;19.48;72.65
75604;BME280;64187;51.010;13.792;2023-07-20T05:57:36;99904.84;;;19.25;72.48
75604;BME280;64187;51.010;13.792;2023-07-20T06:02:40;99911.41;;;19.15;72.53
75604;BME280;64187;51.010;13.792;2023-07-20T06:07:39;99914.81;;;18.85;73.08
75604;BME280;64187;51.010;13.792;2023-07-20T06:12:39;99918.56;;;18.47;76.31
75604;BME280;64187;51.010;13.792;2023-07-20T06:17:38;99910.13;;;18.58;74.76
75604;BME280;64187;51.010;13.792;2023-07-20T06:22:38;99914.19;;;18.60;75.21
75604;BME280;64187;51.010;13.792;2023-07-20T06:27:37;99923.34;;;18.83;74.85
75604;BME280;64187;51.010;13.792;2023-07-20T06:32:36;99943.69;;;18.08;81.02
75604;BME280;64187;51.010;13.792;2023-07-20T06:37:35;99949.22;;;17.18;83.36
75604;BME280;64187;51.010;13.792;2023-07-20T06:42:34;99939.47;;;17.12;87.97
75604;BME280;64187;51.010;13.792;2023-07-20T06:47:38;99942.56;;;17.06;90.31
75604;BME280;64187;51.010;13.792;2023-07-20T06:52:38;99954.53;;;17.48;91.34
75604;BME280;64187;51.010;13.792;2023-07-20T06:57:38;99969.38;;;17.60;91.25
75604;BME280;64187;51.010;13.792;2023-07-20T07:02:37;99960.28;;;17.65;86.84
75604;BME280;64187;51.010;13.792;2023-07-20T07:07:36;99963.75;;;17.90;84.26
75604;BME280;64187;51.010;13.792;2023-07-20T07:12:39;99967.47;;;17.61;85.96
75604;BME280;64187;51.010;13.792;2023-07-20T07:17:38;99959.78;;;17.96;83.10
75604;BME280;64187;51.010;13.792;2023-07-20T07:22:37;99964.84;;;17.89;83.24
75604;BME280;64187;51.010;13.792;2023-07-20T07:27:36;99967.66;;;17.83;86.84
75604;BME280;64187;51.010;13.792;2023-07-20T07:32:36;99964.56;;;18.37;81.16
75604;BME280;64187;51.010;13.792;2023-07-20T07:37:35;99967.72;;;18.44;81.40
75604;BME280;64187;51.010;13.792;2023-07-20T07:42:49;99968.00;;;18.42;82.97
75604;BME280;64187;51.010;13.792;2023-07-20T07:47:48;99972.06;;;19.00;80.75
75604;BME280;64187;51.010;13.792;2023-07-20T07:52:47;99977.44;;;19.05;76.76
75604;BME280;64187;51.010;13.792;2023-07-20T07:57:46;99985.13;;;18.81;77.58
75604;BME280;64187;51.010;13.792;2023-07-20T08:02:46;99973.88;;;19.19;76.61
75604;BME280;64187;51.010;13.792;2023-07-20T08:07:47;99970.09;;;19.28;74.69
75604;BME280;64187;51.010;13.792;2023-07-20T08:12:46;99973.47;;;19.11;76.45
75604;BME280;64187;51.010;13.792;2023-07-20T08:17:44;99973.84;;;19.69;72.59
75604;BME280;64187;51.010;13.792;2023-07-20T08:22:44;99973.59;;;19.43;74.75
75604;BME280;64187;51.010;13.792;2023-07-20T08:27:46;99968.22;;;20.28;70.27
75604;BME280;64187;51.010;13.792;2023-07-20T08:32:46;99975.38;;;19.61;68.90
75604;BME280;64187;51.010;13.792;2023-07-20T08:37:44;99966.13;;;20.56;67.36
75604;BME280;64187;51.010;13.792;2023-07-20T08:42:44;99970.25;;;20.84;64.95
75604;BME280;64187;51.010;13.792;2023-07-20T08:47:45;99971.97;;;21.46;62.10
75604;BME280;64187;51.010;13.792;2023-07-20T08:52:46;99974.81;;;21.06;62.39
75604;BME280;64187;51.010;13.792;2023-07-20T08:57:49;99972.41;;;21.31;60.56
75604;BME280;64187;51.010;13.792;2023-07-20T09:02:50;99975.78;;;20.93;61.76
75604;BME280;64187;51.010;13.792;2023-07-20T09:07:53;99982.44;;;22.05;58.51
75604;BME280;64187;51.010;13.792;2023-07-20T09:12:52;99984.53;;;22.08;57.07
75604;BME280;64187;51.010;13.792;2023-07-20T09:17:52;99988.34;;;21.78;58.27
75604;BME280;64187;51.010;13.792;2023-07-20T09:22:52;99973.19;;;22.27;56.63
75604;BME280;64187;51.010;13.792;2023-07-20T09:27:51;99966.03;;;22.18;57.22
75604;BME280;64187;51.010;13.792;2023-07-20T09:32:50;99961.06;;;22.58;55.95
75604;BME280;64187;51.010;13.792;2023-07-20T09:38:00;99970.41;;;22.74;54.25
75604;BME280;64187;51.010;13.792;2023-07-20T09:43:02;99978.84;;;22.13;55.85
75604;BME280;64187;51.010;13.792;2023-07-20T09:48:07;99983.91;;;22.20;55.45
75604;BME280;64187;51.010;13.792;2023-07-20T09:53:11;99976.47;;;22.03;56.42
75604;BME280;64187;51.010;13.792;2023-07-20T09:58:11;99967.50;;;22.32;54.95
75604;BME280;64187;51.010;13.792;2023-07-20T10:03:11;99971.28;;;21.93;56.22
75604;BME280;64187;51.010;13.792;2023-07-20T10:08:12;99977.28;;;22.04;55.92
75604;BME280;64187;51.010;13.792;2023-07-20T10:13:17;99983.63;;;21.87;57.98
75604;BME280;64187;51.010;13.792;2023-07-20T10:18:29;99989.28;;;21.90;58.05
75604;BME280;64187;51.010;13.792;2023-07-20T10:23:29;99986.72;;;22.88;55.09
75604;BME280;64187;51.010;13.792;2023-07-20T10:28:28;99985.88;;;22.96;55.06
75604;BME280;64187;51.010;13.792;2023-07-20T10:33:28;99987.13;;;23.50;52.88
75604;BME280;64187;51.010;13.792;2023-07-20T10:38:52;99979.13;;;23.78;52.24
75604;BME280;64187;51.010;13.792;2023-07-20T10:43:58;99985.91;;;23.59;52.38
75604;BME280;64187;51.010;13.792;2023-07-20T10:49:09;99988.03;;;23.41;52.79
75604;BME280;64187;51.010;13.792;2023-07-20T11:04:52;99971.44;;;23.83;52.21
75604;BME280;64187;51.010;13.792;2023-07-20T11:09:52;99982.34;;;23.59;52.13
75604;BME280;64187;51.010;13.792;2023-07-20T11:15:10;99984.97;;;23.34;52.55
75604;BME280;64187;51.010;13.792;2023-07-20T11:20:11;99986.91;;;23.13;53.37
75604;BME280;64187;51.010;13.792;2023-07-20T11:25:15;99983.63;;;21.87;66.74
75604;BME280;64187;51.010;13.792;2023-07-20T11:30:17;99978.47;;;21.42;65.47
75604;BME280;64187;51.010;13.792;2023-07-20T11:35:16;99975.97;;;20.97;69.32
75604;BME280;64187;51.010;13.792;2023-07-20T11:40:15;99974.66;;;21.12;69.94
75604;BME280;64187;51.010;13.792;2023-07-20T11:45:14;99979.03;;;20.95;67.32
75604;BME280;64187;51.010;13.792;2023-07-20T11:50:13;99970.38;;;20.79;66.48
75604;BME280;64187;51.010;13.792;2023-07-20T11:55:12;99965.97;;;21.53;66.90
75604;BME280;64187;51.010;13.792;2023-07-20T12:00:12;99968.41;;;21.46;65.31
75604;BME280;64187;51.010;13.792;2023-07-20T12:05:12;99962.13;;;21.54;64.92
75604;BME280;64187;51.010;13.792;2023-07-20T12:10:12;99966.75;;;21.97;67.04
75604;BME280;64187;51.010;13.792;2023-07-20T12:20:13;99977.25;;;21.08;67.07
75604;BME280;64187;51.010;13.792;2023-07-20T12:25:13;99975.00;;;21.10;70.62
75604;BME280;64187;51.010;13.792;2023-07-20T12:30:15;99982.69;;;20.73;67.05
75604;BME280;64187;51.010;13.792;2023-07-20T12:35:14;99997.63;;;19.96;68.16
75604;BME280;64187;51.010;13.792;2023-07-20T12:40:14;99992.06;;;19.28;70.60
75604;BME280;64187;51.010;13.792;2023-07-20T12:45:14;99995.91;;;19.64;71.74
75604;BME280;64187;51.010;13.792;2023-07-20T12:50:12;99998.94;;;19.62;76.62
75604;BME280;64187;51.010;13.792;2023-07-20T12:55:11;100012.84;;;19.43;77.29
75604;BME280;64187;51.010;13.792;2023-07-20T13:00:11;100026.13;;;19.00;76.00
75604;BME280;64187;51.010;13.792;2023-07-20T13:05:10;100036.09;;;18.96;77.93
75604;BME280;64187;51.010;13.792;2023-07-20T13:10:10;100015.13;;;18.72;78.92
75604;BME280;64187;51.010;13.792;2023-07-20T13:15:10;100013.13;;;18.78;76.65
75604;BME280;64187;51.010;13.792;2023-07-20T13:20:10;100006.75;;;19.32;78.32
75604;BME280;64187;51.010;13.792;2023-07-20T13:25:09;100000.44;;;19.46;75.58
75604;BME280;64187;51.010;13.792;2023-07-20T13:30:09;99986.78;;;19.54;72.79
75604;BME280;64187;51.010;13.792;2023-07-20T13:35:12;99975.66;;;19.59;72.47
75604;BME280;64187;51.010;13.792;2023-07-20T13:40:11;99975.03;;;19.40;71.68
75604;BME280;64187;51.010;13.792;2023-07-20T13:45:15;99994.41;;;19.07;72.63
75604;BME280;64187;51.010;13.792;2023-07-20T13:50:14;99996.13;;;19.31;79.46
75604;BME280;64187;51.010;13.792;2023-07-20T13:55:16;99983.69;;;19.70;74.54
75604;BME280;64187;51.010;13.792;2023-07-20T14:00:35;99991.16;;;19.55;73.16
75604;BME280;64187;51.010;13.792;2023-07-20T14:05:34;99991.63;;;19.57;74.50
75604;BME280;64187;51.010;13.792;2023-07-20T14:10:36;100002.50;;;19.76;71.42
75604;BME280;64187;51.010;13.792;2023-07-20T14:15:55;99996.00;;;20.17;69.78
75604;BME280;64187;51.010;13.792;2023-07-20T14:20:54;100003.56;;;20.43;67.85
75604;BME280;64187;51.010;13.792;2023-07-20T14:25:53;100001.88;;;20.33;65.90
75604;BME280;64187;51.010;13.792;2023-07-20T14:30:52;99991.81;;;20.20;66.76
75604;BME280;64187;51.010;13.792;2023-07-20T14:35:50;100010.72;;;20.21;67.55
75604;BME280;64187;51.010;13.792;2023-07-20T14:40:50;100007.59;;;20.77;65.30
75604;BME280;64187;51.010;13.792;2023-07-20T14:45:51;100020.03;;;20.65;65.64
75604;BME280;64187;51.010;13.792;2023-07-20T14:50:50;100005.53;;;20.82;63.75
75604;BME280;64187;51.010;13.792;2023-07-20T14:55:49;100003.94;;;20.90;65.99
75604;BME280;64187;51.010;13.792;2023-07-20T15:00:48;100003.66;;;21.26;62.79
75604;BME280;64187;51.010;13.792;2023-07-20T15:05:47;99994.59;;;21.08;61.02
75604;BME280;64187;51.010;13.792;2023-07-20T15:10:46;99983.25;;;21.10;58.41
75604;BME280;64187;51.010;13.792;2023-07-20T15:15:45;99976.47;;;20.59;60.74
75604;BME280;64187;51.010;13.792;2023-07-20T15:20:44;99969.38;;;20.58;61.04
75604;BME280;64187;51.010;13.792;2023-07-20T15:25:43;99976.00;;;21.14;61.08
75604;BME280;64187;51.010;13.792;2023-07-20T15:30:42;99980.81;;;21.00;60.40
75604;BME280;64187;51.010;13.792;2023-07-20T15:35:44;99971.38;;;20.83;61.21
75604;BME280;64187;51.010;13.792;2023-07-20T15:40:43;99970.97;;;21.34;59.68
75604;BME280;64187;51.010;13.792;2023-07-20T15:45:48;99964.38;;;21.69;59.46
75604;BME280;64187;51.010;13.792;2023-07-20T15:50:50;99956.59;;;21.71;57.57
75604;BME280;64187;51.010;13.792;2023-07-20T15:55:54;99963.06;;;21.76;57.51
75604;BME280;64187;51.010;13.792;2023-07-20T16:00:55;99967.41;;;21.07;59.40
75604;BME280;64187;51.010;13.792;2023-07-20T16:05:54;99974.47;;;20.82;60.52
75604;BME280;64187;51.010;13.792;2023-07-20T16:10:54;99971.91;;;21.03;60.45
75604;BME280;64187;51.010;13.792;2023-07-20T16:15:56;99972.06;;;20.98;58.87
75604;BME280;64187;51.010;13.792;2023-07-20T16:20:55;99964.00;;;21.27;58.18
75604;BME280;64187;51.010;13.792;2023-07-20T16:25:55;99955.00;;;21.44;57.46
75604;BME280;64187;51.010;13.792;2023-07-20T16:30:54;99965.28;;;21.91;56.59
75604;BME280;64187;51.010;13.792;2023-07-20T16:35:53;99959.94;;;21.34;56.28
75604;BME280;64187;51.010;13.792;2023-07-20T16:40:56;99966.44;;;21.20;56.42
75604;BME280;64187;51.010;13.792;2023-07-20T16:46:02;99960.56;;;20.87;57.21
75604;BME280;64187;51.010;13.792;2023-07-20T16:51:21;99961.84;;;20.90;58.58
75604;BME280;64187;51.010;13.792;2023-07-20T16:56:21;99945.00;;;22.04;54.66
75604;BME280;64187;51.010;13.792;2023-07-20T17:01:20;99954.31;;;23.90;50.33
75604;BME280;64187;51.010;13.792;2023-07-20T17:06:19;99957.38;;;25.32;45.55
75604;BME280;64187;51.010;13.792;2023-07-20T17:11:18;99953.97;;;24.04;47.35
75604;BME280;64187;51.010;13.792;2023-07-20T17:16:18;99952.22;;;26.03;43.50
75604;BME280;64187;51.010;13.792;2023-07-20T17:21:16;99957.00;;;25.74;42.79
75604;BME280;64187;51.010;13.792;2023-07-20T17:26:15;99952.97;;;25.31;43.60
75604;BME280;64187;51.010;13.792;2023-07-20T17:31:17;99951.16;;;23.37;48.17
75604;BME280;64187;51.010;13.792;2023-07-20T17:36:18;99944.06;;;22.47;50.96
75604;BME280;64187;51.010;13.792;2023-07-20T17:41:20;99944.72;;;21.36;54.07
75604;BME280;64187;51.010;13.792;2023-07-20T17:46:21;99944.22;;;21.08;53.76
75604;BME280;64187;51.010;13.792;2023-07-20T17:51:22;99946.19;;;21.07;54.06
75604;BME280;64187;51.010;13.792;2023-07-20T17:56:22;99951.31;;;20.92;53.31
75604;BME280;64187;51.010;13.792;2023-07-20T18:01:21;99942.56;;;20.72;53.64
75604;BME280;64187;51.010;13.792;2023-07-20T18:06:21;99933.28;;;20.59;56.04
75604;BME280;64187;51.010;13.792;2023-07-20T18:11:20;99934.56;;;20.62;55.30
75604;BME280;64187;51.010;13.792;2023-07-20T18:16:19;99938.78;;;20.59;56.03
75604;BME280;64187;51.010;13.792;2023-07-20T18:21:18;99929.00;;;20.44;56.19
75604;BME280;64187;51.010;13.792;2023-07-20T18:26:17;99930.31;;;19.85;58.78
75604;BME280;64187;51.010;13.792;2023-07-20T18:31:17;99931.03;;;19.90;59.51
75604;BME280;64187;51.010;13.792;2023-07-20T18:36:16;99926.19;;;19.51;61.88
75604;BME280;64187;51.010;13.792;2023-07-20T18:41:15;99921.03;;;19.72;60.98
75604;BME280;64187;51.010;13.792;2023-07-20T18:46:17;99944.50;;;19.19;64.89
75604;BME280;64187;51.010;13.792;2023-07-20T18:51:19;99945.56;;;18.68;66.29
75604;BME280;64187;51.010;13.792;2023-07-20T18:56:19;99944.88;;;18.48;67.34
75604;BME280;64187;51.010;13.792;2023-07-20T19:01:17;99942.84;;;18.54;66.73
75604;BME280;64187;51.010;13.792;2023-07-20T19:06:16;99946.09;;;18.28;66.54
75604;BME280;64187;51.010;13.792;2023-07-20T19:11:15;99947.56;;;18.07;68.27
75604;BME280;64187;51.010;13.792;2023-07-20T19:16:17;99948.09;;;18.23;66.50
75604;BME280;64187;51.010;13.792;2023-07-20T19:21:16;99960.59;;;18.29;65.25
75604;BME280;64187;51.010;13.792;2023-07-20T19:26:15;99967.28;;;17.90;67.11
75604;BME280;64187;51.010;13.792;2023-07-20T19:31:14;99978.63;;;17.64;69.84
75604;BME280;64187;51.010;13.792;2023-07-20T19:36:14;99974.84;;;17.79;69.03
75604;BME280;64187;51.010;13.792;2023-07-20T19:41:12;99977.56;;;17.47;70.07
75604;BME280;64187;51.010;13.792;2023-07-20T19:46:11;99986.13;;;17.59;68.77
75604;BME280;64187;51.010;13.792;2023-07-20T19:51:11;99978.72;;;17.40;70.06
75604;BME280;64187;51.010;13.792;2023-07-20T19:56:09;99979.97;;;17.67;68.02
75604;BME280;64187;51.010;13.792;2023-07-20T20:01:08;99979.91;;;18.05;66.77
75604;BME280;64187;51.010;13.792;2023-07-20T20:06:10;99976.88;;;17.36;70.95
75604;BME280;64187;51.010;13.792;2023-07-20T20:11:09;99991.34;;;16.98;73.05
75604;BME280;64187;51.010;13.792;2023-07-20T20:16:11;99994.38;;;16.97;71.35
75604;BME280;64187;51.010;13.792;2023-07-20T20:21:10;99992.09;;;17.23;73.32
75604;BME280;64187;51.010;13.792;2023-07-20T20:26:10;100002.41;;;19.31;64.62
75604;BME280;64187;51.010;13.792;2023-07-20T20:31:09;99994.38;;;19.94;61.76
75604;BME280;64187;51.010;13.792;2023-07-20T20:36:08;100003.97;;;20.28;60.31
75604;BME280;64187;51.010;13.792;2023-07-20T20:41:07;100001.25;;;20.36;59.81
75604;BME280;64187;51.010;13.792;2023-07-20T20:46:06;100009.00;;;18.34;66.32
75604;BME280;64187;51.010;13.792;2023-07-20T20:51:11;100007.16;;;17.01;72.50
75604;BME280;64187;51.010;13.792;2023-07-20T20:56:10;100012.47;;;16.40;75.77
75604;BME280;64187;51.010;13.792;2023-07-20T21:06:48;100001.34;;;16.60;72.97
75604;BME280;64187;51.010;13.792;2023-07-20T21:11:46;100009.81;;;17.07;71.13
75604;BME280;64187;51.010;13.792;2023-07-20T21:16:45;100003.69;;;16.67;72.89
75604;BME280;64187;51.010;13.792;2023-07-20T21:21:44;100012.81;;;16.57;74.15
75604;BME280;64187;51.010;13.792;2023-07-20T21:26:43;100015.94;;;15.87;77.16
75604;BME280;64187;51.010;13.792;2023-07-20T21:31:42;100022.06;;;16.08;77.08
75604;BME280;64187;51.010;13.792;2023-07-20T21:36:41;100017.09;;;15.81;78.55
75604;BME280;64187;51.010;13.792;2023-07-20T21:41:40;100023.66;;;15.75;80.28
75604;BME280;64187;51.010;13.792;2023-07-20T21:46:39;100028.03;;;15.76;79.93
75604;BME280;64187;51.010;13.792;2023-07-20T21:51:38;100018.13;;;15.85;79.95
75604;BME280;64187;51.010;13.792;2023-07-20T21:56:37;100032.69;;;15.70;80.38
75604;BME280;64187;51.010;13.792;2023-07-20T22:01:36;100025.94;;;15.57;81.11
75604;BME280;64187;51.010;13.792;2023-07-20T22:06:37;100029.16;;;15.64;81.46
75604;BME280;64187;51.010;13.792;2023-07-20T22:11:45;100023.72;;;15.64;81.31
75604;BME280;64187;51.010;13.792;2023-07-20T22:16:44;100022.41;;;15.57;81.57
75604;BME280;64187;51.010;13.792;2023-07-20T22:21:43;100012.72;;;15.80;80.98
75604;BME280;64187;51.010;13.792;2023-07-20T22:26:42;100013.88;;;15.68;81.10
75604;BME280;64187;51.010;13.792;2023-07-20T22:31:41;100015.72;;;15.34;84.22
75604;BME280;64187;51.010;13.792;2023-07-20T22:36:40;100010.66;;;15.61;81.09
75604;BME280;64187;51.010;13.792;2023-07-20T22:41:39;99999.50;;;15.58;81.06
75604;BME280;64187;51.010;13.792;2023-07-20T22:46:37;99997.50;;;15.68;81.59
75604;BME280;64187;51.010;13.792;2023-07-20T22:51:36;100005.47;;;15.60;82.03
75604;BME280;64187;51.010;13.792;2023-07-20T22:56:36;100003.41;;;15.86;80.56
75604;BME280;64187;51.010;13.792;2023-07-20T23:01:34;99997.56;;;16.27;78.71
75604;BME280;64187;51.010;13.792;2023-07-20T23:06:34;99995.63;;;16.32;79.93
75604;BME280;64187;51.010;13.792;2023-07-20T23:11:34;100002.75;;;16.28;79.71
75604;BME280;64187;51.010;13.792;2023-07-20T23:16:32;100005.69;;;16.08;80.60
75604;BME280;64187;51.010;13.792;2023-07-20T23:21:31;100001.16;;;16.22;78.99
75604;BME280;64187;51.010;13.792;2023-07-20T23:26:30;99999.16;;;16.33;77.37
75604;BME280;64187;51.010;13.792;2023-07-20T23:31:29;99996.38;;;16.09;78.20
75604;BME280;64187;51.010;13.792;2023-07-20T23:36:28;99992.72;;;16.19;77.54
75604;BME280;64187;51.010;13.792;2023-07-20T23:41:27;99983.47;;;16.14;78.86
75604;BME280;64187;51.010;13.792;2023-07-20T23:46:26;99994.81;;;16.03;80.44
75604;BME280;64187;51.010;13.792;2023-07-20T23:51:27;99979.75;;;16.05;80.54
75604;BME280;64187;51.010;13.792;2023-07-20T23:56:26;99976.81;;;16.55;77.18
